Time;durP1;ratioP1;P1;durP2;ratioP2;P2;SDS_P1;SDS_P2;PMS_P1;PMS_P2;Temp;Humidity;BMP_temperature;BMP_pressure;BME280_temperature;BME280_humidity;BME280_pressure;Samples;Min_cycle;Max_cycle;Signal;HPM_P1;HPM_P2
2022/06/26 00:01:46;;;;;;;;;0.00;0.00;;;;;17.34;60.70;101038.97;5057010;28;69182;-51
2022/06/26 00:04:11;;;;;;;;;1.00;1.00;;;;;17.34;60.46;101041.66;5061417;28;67510;-49
2022/06/26 00:06:37;;;;;;;;;1.00;1.00;;;;;17.36;60.66;101047.75;5057622;28;45354;-51
2022/06/26 00:09:03;;;;;;;;;1.00;1.00;;;;;17.38;60.53;101050.34;5058199;28;45539;-51
2022/06/26 00:11:29;;;;;;;;;1.00;1.00;;;;;17.41;60.03;101048.28;5062730;28;45456;-51
2022/06/26 00:13:54;;;;;;;;;3.00;1.00;;;;;17.40;59.93;101053.78;5069167;27;45389;-50
2022/06/26 00:16:21;;;;;;;;;3.00;1.67;;;;;17.41;60.20;101050.97;5056360;28;59820;-49
2022/06/26 00:18:47;;;;;;;;;1.00;1.00;;;;;17.44;60.12;101055.25;5059483;28;45466;-48
2022/06/26 00:21:12;;;;;;;;;1.00;1.00;;;;;17.42;59.90;101055.38;5061086;28;47199;-47
2022/06/26 00:23:38;;;;;;;;;1.00;1.00;;;;;17.36;60.18;101058.53;5064445;28;45514;-48
2022/06/26 00:26:04;;;;;;;;;0.67;0.33;;;;;17.32;60.25;101055.19;5055149;28;45624;-48
2022/06/26 00:28:30;;;;;;;;;2.00;2.00;;;;;17.28;59.83;101048.34;5064005;28;45594;-47
2022/06/26 00:30:55;;;;;;;;;2.00;1.33;;;;;17.28;60.25;101052.88;5058096;28;45371;-52
2022/06/26 00:33:20;;;;;;;;;2.00;1.00;;;;;17.28;60.36;101055.56;5057309;28;45351;-51
2022/06/26 00:35:46;;;;;;;;;1.00;1.00;;;;;17.27;60.28;101046.63;5057939;28;45373;-50
2022/06/26 00:38:11;;;;;;;;;2.00;2.00;;;;;17.25;60.23;101043.19;5059961;28;45347;-51
2022/06/26 00:40:38;;;;;;;;;1.33;1.33;;;;;17.25;60.50;101051.25;5060248;28;71231;-48
2022/06/26 00:43:04;;;;;;;;;1.00;1.00;;;;;17.26;60.34;101053.00;5066885;27;45385;-49
2022/06/26 00:45:29;;;;;;;;;0.67;0.67;;;;;17.27;60.42;101043.94;5058079;28;45462;-50
2022/06/26 00:47:55;;;;;;;;;1.00;1.00;;;;;17.30;60.28;101049.09;5057738;28;45496;-49
2022/06/26 00:50:20;;;;;;;;;1.00;1.00;;;;;17.30;60.10;101035.66;5063099;28;71757;-49
2022/06/26 00:52:46;;;;;;;;;1.00;1.00;;;;;17.33;60.18;101042.63;5063195;27;67581;-48
2022/06/26 00:55:11;;;;;;;;;1.00;1.00;;;;;17.31;60.41;101045.44;5060527;28;45701;-49
2022/06/26 00:57:37;;;;;;;;;1.67;1.00;;;;;17.32;60.16;101049.81;5057589;28;45420;-53
2022/06/26 01:00:07;;;;;;;;;2.00;2.00;;;;;17.31;60.16;101055.31;5057917;28;45367;-49
2022/06/26 01:02:32;;;;;;;;;1.33;1.00;;;;;17.31;60.34;101056.19;5057327;28;45496;-47
2022/06/26 01:04:57;;;;;;;;;4.00;1.33;;;;;17.30;60.12;101072.41;5067343;28;51944;-50
2022/06/26 01:07:23;;;;;;;;;4.67;2.00;;;;;17.25;60.07;101062.03;5057442;28;45702;-50
2022/06/26 01:09:49;;;;;;;;;2.00;2.00;;;;;17.25;60.26;101056.63;5061624;28;66475;-48
2022/06/26 01:12:14;;;;;;;;;2.67;2.33;;;;;17.23;59.97;101045.13;5059138;28;67723;-48
2022/06/26 01:14:40;;;;;;;;;1.33;1.00;;;;;17.23;60.29;101053.19;5065064;28;45392;-48
2022/06/26 01:17:06;;;;;;;;;2.67;1.00;;;;;17.23;59.88;101063.94;5057341;28;45757;-47
2022/06/26 01:19:31;;;;;;;;;2.00;2.00;;;;;17.23;60.46;101068.47;5058107;28;48625;-48
2022/06/26 01:21:57;;;;;;;;;0.33;0.33;;;;;17.22;60.01;101072.97;5067853;28;45362;-50
2022/06/26 01:24:22;;;;;;;;;2.00;1.00;;;;;17.22;60.45;101067.59;5056279;28;45345;-49
2022/06/26 01:26:48;;;;;;;;;2.00;2.00;;;;;17.23;60.02;101069.31;5060021;28;62400;-50
2022/06/26 01:29:13;;;;;;;;;1.00;1.00;;;;;17.20;60.09;101069.56;5059800;28;71332;-49
2022/06/26 01:31:38;;;;;;;;;1.67;1.33;;;;;17.17;60.34;101065.28;5061060;28;45327;-49
2022/06/26 01:34:06;;;;;;;;;1.00;1.00;;;;;17.16;60.44;101070.75;5061250;28;45806;-49
2022/06/26 01:36:32;;;;;;;;;1.00;1.00;;;;;17.15;60.10;101071.72;5073724;28;45519;-52
2022/06/26 01:38:57;;;;;;;;;1.67;1.67;;;;;17.16;60.41;101078.81;5072658;28;45463;-50
2022/06/26 01:41:23;;;;;;;;;2.67;1.00;;;;;17.13;60.25;101087.97;5059488;28;67671;-49
2022/06/26 01:43:48;;;;;;;;;1.67;1.67;;;;;17.13;60.29;101089.78;5060595;28;65253;-47
2022/06/26 01:46:13;;;;;;;;;4.67;1.00;;;;;17.11;60.06;101092.59;5051833;28;69312;-48
2022/06/26 01:48:39;;;;;;;;;2.33;1.00;;;;;17.10;60.46;101087.34;5055419;28;46272;-49
2022/06/26 01:51:05;;;;;;;;;1.00;1.00;;;;;17.07;60.88;101090.25;5058708;27;45641;-48
2022/06/26 01:53:31;;;;;;;;;2.00;2.00;;;;;17.00;60.41;101090.69;5051303;28;45485;-49
2022/06/26 01:55:56;;;;;;;;;3.33;2.67;;;;;16.99;60.55;101099.72;5068451;28;45740;-49
2022/06/26 01:58:22;;;;;;;;;2.00;2.00;;;;;16.99;60.64;101096.19;5060053;28;45394;-48
2022/06/26 02:00:50;;;;;;;;;1.67;1.67;;;;;16.98;60.58;101092.63;5060874;28;45311;-48
2022/06/26 02:03:15;;;;;;;;;2.67;2.00;;;;;16.97;60.22;101090.94;5065466;28;45557;-48
2022/06/26 02:05:41;;;;;;;;;2.67;2.67;;;;;16.95;60.29;101092.84;5066004;27;45363;-49
2022/06/26 02:08:07;;;;;;;;;0.00;0.00;;;;;16.94;60.07;101093.81;5067242;28;74388;-48
2022/06/26 02:16:05;;;;;;;;;3.00;2.00;;;;;16.90;60.81;101095.00;5060456;28;45382;-49
2022/06/26 02:18:31;;;;;;;;;2.67;2.00;;;;;16.88;60.42;101086.16;5065269;28;45316;-48
2022/06/26 02:20:56;;;;;;;;;4.00;2.00;;;;;16.89;60.58;101095.09;5059999;28;45468;-49
2022/06/26 02:23:22;;;;;;;;;3.00;2.00;;;;;16.86;61.04;101094.34;5060368;28;51406;-52
2022/06/26 02:25:47;;;;;;;;;2.00;2.00;;;;;16.85;61.25;101102.50;5061687;28;45434;-51
2022/06/26 02:28:14;;;;;;;;;2.33;2.00;;;;;16.81;60.83;101115.28;5061008;28;45311;-48
2022/06/26 02:30:39;;;;;;;;;4.00;2.00;;;;;16.80;61.04;101112.72;5072955;28;45381;-52
2022/06/26 02:33:04;;;;;;;;;2.67;2.00;;;;;16.81;60.65;101107.25;5064375;27;62197;-49
2022/06/26 02:35:30;;;;;;;;;5.00;4.00;;;;;16.83;60.96;101112.50;5059495;28;46126;-48
2022/06/26 02:37:56;;;;;;;;;2.00;2.00;;;;;16.82;61.02;101108.97;5059953;28;46981;-49
2022/06/26 02:40:23;;;;;;;;;2.00;2.00;;;;;16.83;60.94;101102.63;5060446;28;45605;-51
2022/06/26 02:42:48;;;;;;;;;1.67;1.33;;;;;16.85;61.13;101097.13;5065561;28;45715;-48
2022/06/26 02:45:14;;;;;;;;;2.00;2.00;;;;;16.85;61.14;101091.75;5059446;28;45369;-48
2022/06/26 02:47:40;;;;;;;;;4.67;2.00;;;;;16.85;60.51;101091.75;5060251;28;49731;-50
2022/06/26 02:50:06;;;;;;;;;2.00;2.00;;;;;16.87;60.76;101092.53;5055441;28;45840;-50
2022/06/26 02:52:32;;;;;;;;;2.33;2.00;;;;;16.86;60.70;101093.50;5065145;27;45766;-48
2022/06/26 02:54:57;;;;;;;;;1.33;1.33;;;;;16.86;61.09;101101.53;5072885;28;45216;-52
2022/06/26 02:57:22;;;;;;;;;3.33;3.00;;;;;16.84;60.86;101098.09;5060021;28;70861;-48
2022/06/26 02:59:48;;;;;;;;;1.00;1.00;;;;;16.83;60.64;101101.75;5062450;28;49138;-49
2022/06/26 03:02:13;;;;;;;;;2.33;1.00;;;;;16.82;60.90;101105.44;5065289;27;54923;-49
2022/06/26 03:04:38;;;;;;;;;4.00;2.33;;;;;16.79;61.04;101114.56;5057269;28;64034;-51
2022/06/26 03:07:04;;;;;;;;;2.00;2.00;;;;;16.78;61.03;101114.66;5064169;28;72647;-49
2022/06/26 03:09:29;;;;;;;;;6.67;2.33;;;;;16.78;61.23;101112.84;5058496;27;45405;-52
2022/06/26 03:11:55;;;;;;;;;2.33;2.33;;;;;16.76;61.34;101114.75;5059062;28;65034;-50
2022/06/26 03:14:20;;;;;;;;;3.00;2.00;;;;;16.74;61.00;101121.22;5057951;28;45355;-50
2022/06/26 03:16:46;;;;;;;;;5.67;3.00;;;;;16.73;61.18;101108.78;5064380;28;71003;-50
2022/06/26 03:19:11;;;;;;;;;2.33;1.67;;;;;16.74;61.31;101114.03;5059000;28;45288;-48
2022/06/26 03:21:37;;;;;;;;;3.00;3.00;;;;;16.73;61.02;101119.50;5058768;28;61921;-49
2022/06/26 03:24:02;;;;;;;;;3.00;3.00;;;;;16.74;61.12;101116.72;5058891;28;64849;-52
2022/06/26 03:26:32;;;;;;;;;2.00;2.00;;;;;16.73;60.77;101112.31;5059975;28;46913;-50
2022/06/26 03:28:57;;;;;;;;;2.00;2.00;;;;;16.73;61.37;101119.50;5059046;28;45382;-51
2022/06/26 03:31:23;;;;;;;;;2.33;2.33;;;;;16.74;60.97;101124.78;5058890;28;45422;-52
2022/06/26 03:33:48;;;;;;;;;3.00;3.00;;;;;16.76;60.81;101128.19;5057746;28;63204;-49
2022/06/26 03:36:14;;;;;;;;;3.00;3.00;;;;;16.78;60.79;101133.44;5063433;28;45548;-49
2022/06/26 03:38:39;;;;;;;;;4.00;2.67;;;;;16.78;60.61;101123.59;5060101;27;69190;-50
2022/06/26 03:41:04;;;;;;;;;3.00;3.00;;;;;16.79;60.88;101133.38;5059434;28;68745;-50
2022/06/26 03:43:30;;;;;;;;;3.33;3.33;;;;;16.79;60.50;101130.69;5058724;28;45526;-47
2022/06/26 03:45:55;;;;;;;;;3.33;2.00;;;;;16.80;60.51;101123.47;5058976;28;46200;-49
2022/06/26 03:48:20;;;;;;;;;4.67;2.33;;;;;16.80;60.27;101131.53;5063168;28;50890;-49
2022/06/26 03:50:46;;;;;;;;;1.67;1.33;;;;;16.79;60.79;101128.00;5047361;28;63719;-48
2022/06/26 03:53:11;;;;;;;;;3.33;2.33;;;;;16.79;60.53;101132.50;5054218;28;64616;-47
2022/06/26 03:55:36;;;;;;;;;3.00;1.00;;;;;16.79;60.94;101129.81;5058809;28;45355;-48
2022/06/26 03:58:02;;;;;;;;;3.00;3.00;;;;;16.78;60.75;101128.94;5059711;28;68857;-49
2022/06/26 04:00:28;;;;;;;;;4.00;2.33;;;;;16.78;60.62;101123.59;5058593;28;45446;-48
2022/06/26 04:02:54;;;;;;;;;3.00;2.00;;;;;16.77;60.59;101126.38;5058848;28;45448;-47
2022/06/26 04:05:19;;;;;;;;;2.33;2.33;;;;;16.76;60.41;101128.19;5065230;28;45470;-49
2022/06/26 04:07:45;;;;;;;;;3.00;3.00;;;;;16.77;60.43;101129.06;5064209;27;53510;-51
2022/06/26 04:10:10;;;;;;;;;1.00;1.00;;;;;16.76;60.92;101135.41;5057278;28;68015;-48
2022/06/26 04:12:35;;;;;;;;;2.00;2.00;;;;;16.75;60.56;101149.78;5058855;28;45430;-49
2022/06/26 04:15:01;;;;;;;;;2.00;2.00;;;;;16.71;60.74;101138.41;5062311;28;46131;-47
2022/06/26 04:17:26;;;;;;;;;4.00;2.33;;;;;16.70;60.24;101150.13;5063523;27;69717;-49
2022/06/26 04:19:51;;;;;;;;;4.00;1.00;;;;;16.70;60.32;101159.03;5062813;28;63861;-47
2022/06/26 04:22:17;;;;;;;;;1.67;1.67;;;;;16.73;60.18;101167.88;5054009;28;65606;-47
2022/06/26 04:24:42;;;;;;;;;2.33;2.00;;;;;16.75;60.30;101180.22;5057356;28;45960;-49
2022/06/26 04:27:07;;;;;;;;;5.00;2.00;;;;;16.77;60.18;101166.66;5053821;28;45464;-51
2022/06/26 04:29:33;;;;;;;;;4.00;2.67;;;;;16.79;60.48;101170.09;5057514;28;45266;-49
2022/06/26 04:31:58;;;;;;;;;1.67;1.67;;;;;16.79;60.27;101176.34;5054459;28;64112;-48
2022/06/26 04:34:23;;;;;;;;;2.00;2.00;;;;;16.77;59.83;101180.09;5056968;28;46086;-50
2022/06/26 04:36:49;;;;;;;;;3.00;3.00;;;;;16.77;59.95;101180.94;5068395;28;45534;-48
2022/06/26 04:39:14;;;;;;;;;1.00;1.00;;;;;16.78;59.92;101171.94;5065916;28;62636;-48
2022/06/26 04:41:39;;;;;;;;;2.00;2.00;;;;;16.80;59.89;101186.09;5058213;28;45939;-50
2022/06/26 04:44:10;;;;;;;;;3.00;1.67;;;;;16.80;59.62;101188.78;5058467;28;46003;-47
2022/06/26 04:46:38;;;;;;;;;3.33;2.00;;;;;16.81;59.99;101179.75;5059469;28;45433;-50
2022/06/26 04:49:04;;;;;;;;;4.00;1.67;;;;;16.83;60.02;101172.47;5068238;27;45367;-49
2022/06/26 04:51:29;;;;;;;;;2.67;2.67;;;;;16.84;59.90;101181.38;5044538;28;45381;-47
2022/06/26 04:53:55;;;;;;;;;2.33;2.33;;;;;16.82;59.58;101189.53;5065803;28;46121;-49
2022/06/26 04:56:20;;;;;;;;;2.33;2.33;;;;;16.81;59.53;101198.56;5059825;27;45380;-47
2022/06/26 04:58:46;;;;;;;;;2.33;1.67;;;;;16.80;59.80;101198.69;5058567;28;45400;-48
2022/06/26 05:01:12;;;;;;;;;1.67;1.67;;;;;16.81;59.94;101203.09;5059557;28;45361;-51
2022/06/26 05:03:37;;;;;;;;;2.00;1.00;;;;;16.77;59.25;101206.97;5064586;28;46109;-47
2022/06/26 05:06:02;;;;;;;;;4.00;2.00;;;;;16.75;59.75;101201.72;5063239;27;45481;-48
2022/06/26 05:08:28;;;;;;;;;3.67;2.00;;;;;16.76;59.85;101198.03;5074722;28;59939;-48
2022/06/26 05:10:53;;;;;;;;;2.67;1.67;;;;;16.75;59.85;101203.50;5065788;27;67798;-49
2022/06/26 05:13:18;;;;;;;;;3.00;2.00;;;;;16.74;59.78;101207.16;5060198;27;70535;-48
2022/06/26 05:15:44;;;;;;;;;2.00;2.00;;;;;16.74;60.25;101215.22;5061149;28;68100;-48
2022/06/26 05:18:09;;;;;;;;;3.00;2.00;;;;;16.72;59.49;101214.47;5067257;27;45777;-49
2022/06/26 05:20:35;;;;;;;;;2.00;2.00;;;;;16.73;59.97;101221.56;5059345;28;62527;-51
2022/06/26 05:23:00;;;;;;;;;1.33;1.33;;;;;16.74;59.58;101224.16;5065219;27;58732;-49
2022/06/26 05:25:25;;;;;;;;;7.00;2.00;;;;;16.76;59.68;101221.34;5056178;28;68817;-48
2022/06/26 05:27:51;;;;;;;;;3.00;3.00;;;;;16.76;59.68;101215.97;5066230;28;45540;-49
2022/06/26 05:30:16;;;;;;;;;2.67;2.00;;;;;16.76;59.40;101211.47;5061552;27;45452;-51
2022/06/26 05:32:41;;;;;;;;;3.00;1.33;;;;;16.77;59.53;101206.97;5059663;28;46986;-51
2022/06/26 05:35:07;;;;;;;;;3.00;2.00;;;;;16.77;59.43;101209.66;5053011;28;52309;-49
2022/06/26 05:37:32;;;;;;;;;3.67;2.00;;;;;16.77;59.52;101207.81;5055490;28;45375;-49
2022/06/26 05:39:58;;;;;;;;;2.33;1.33;;;;;16.76;59.35;101211.47;5054622;28;67222;-50
2022/06/26 05:42:23;;;;;;;;;2.00;2.00;;;;;16.77;59.36;101213.19;5056810;28;73927;-53
2022/06/26 05:44:48;;;;;;;;;2.33;2.33;;;;;16.79;59.71;101215.75;5051461;28;45353;-49
2022/06/26 05:47:14;;;;;;;;;3.33;2.00;;;;;16.81;59.62;101219.22;5048498;28;62701;-49
2022/06/26 05:49:39;;;;;;;;;1.67;1.67;;;;;16.81;59.69;101221.91;5057629;28;64633;-49
2022/06/26 05:52:05;;;;;;;;;2.00;1.67;;;;;16.85;60.74;101218.03;5051811;28;68720;-52
2022/06/26 05:54:31;;;;;;;;;2.00;2.00;;;;;16.93;59.11;101215.69;5056844;28;46434;-49
2022/06/26 05:56:57;;;;;;;;;4.00;2.00;;;;;17.02;59.00;101217.72;5059072;28;45721;-50
2022/06/26 05:59:22;;;;;;;;;3.00;2.00;;;;;17.08;58.71;101215.56;5059062;28;45594;-49
2022/06/26 06:01:47;;;;;;;;;3.00;3.00;;;;;17.13;58.19;101219.66;5059185;28;71748;-48
2022/06/26 06:04:12;;;;;;;;;2.67;2.00;;;;;17.17;57.86;101215.78;5059407;28;45460;-48
2022/06/26 06:06:39;;;;;;;;;2.00;2.00;;;;;17.18;57.78;101230.06;5058491;28;65071;-50
2022/06/26 06:09:04;;;;;;;;;1.33;1.33;;;;;17.23;57.83;101229.75;5059678;28;68418;-51
2022/06/26 06:11:31;;;;;;;;;1.00;1.00;;;;;17.27;57.09;101236.63;5056978;28;47378;-48
2022/06/26 06:13:56;;;;;;;;;2.00;2.00;;;;;17.28;57.17;101231.13;5067786;27;46859;-50
2022/06/26 06:16:22;;;;;;;;;2.00;2.00;;;;;17.29;57.01;101237.38;5059133;28;59574;-48
2022/06/26 06:18:47;;;;;;;;;3.00;3.00;;;;;17.32;57.24;101240.69;5058755;28;60189;-48
2022/06/26 06:21:12;;;;;;;;;1.67;1.00;;;;;17.39;57.11;101241.13;5058475;28;46258;-47
2022/06/26 06:23:39;;;;;;;;;1.00;1.00;;;;;17.43;56.73;101241.75;5062675;28;45481;-48
2022/06/26 06:26:05;;;;;;;;;3.00;2.00;;;;;17.48;57.02;101239.59;5059899;28;45703;-49
2022/06/26 06:28:30;;;;;;;;;1.00;1.00;;;;;17.53;57.04;101238.31;5056984;28;45481;-51
2022/06/26 06:30:56;;;;;;;;;1.67;1.67;;;;;17.61;56.67;101248.50;5050812;28;71131;-49
2022/06/26 06:33:21;;;;;;;;;5.00;3.00;;;;;17.65;56.24;101244.63;5058128;28;69621;-50
2022/06/26 06:35:48;;;;;;;;;2.00;2.00;;;;;17.69;56.25;101245.22;5056762;28;45397;-48
2022/06/26 06:38:14;;;;;;;;;1.00;1.00;;;;;17.72;55.56;101252.22;5053591;28;45287;-48
2022/06/26 06:40:40;;;;;;;;;3.00;1.00;;;;;17.69;55.41;101251.50;5060973;28;70728;-48
2022/06/26 06:43:09;;;;;;;;;1.00;1.00;;;;;17.72;56.21;101257.59;5061887;28;45629;-49
2022/06/26 06:45:35;;;;;;;;;2.00;2.00;;;;;17.76;56.29;101261.81;5059446;28;45405;-47
2022/06/26 06:48:00;;;;;;;;;2.33;2.33;;;;;17.81;56.24;101251.56;5060215;28;64889;-51
2022/06/26 06:50:25;;;;;;;;;1.00;1.00;;;;;17.85;55.87;101258.44;5055041;28;69834;-47
2022/06/26 06:52:50;;;;;;;;;5.00;2.33;;;;;17.89;56.08;101259.94;5056955;28;69317;-48
2022/06/26 06:55:16;;;;;;;;;1.00;1.00;;;;;17.93;55.92;101261.44;5069843;27;64600;-50
2022/06/26 06:57:41;;;;;;;;;1.33;1.33;;;;;18.01;55.79;101258.19;5057870;28;66145;-51
2022/06/26 07:00:07;;;;;;;;;4.33;1.00;;;;;18.12;55.99;101260.94;5057959;28;68404;-47
2022/06/26 07:02:32;;;;;;;;;3.00;3.00;;;;;18.25;55.42;101263.59;5066790;28;45689;-48
2022/06/26 07:05:00;;;;;;;;;3.00;1.67;;;;;18.37;54.90;101260.91;5067261;28;45855;-48
2022/06/26 07:07:25;;;;;;;;;4.00;1.00;;;;;18.48;54.16;101264.50;5058423;28;45494;-49
2022/06/26 07:09:51;;;;;;;;;1.00;1.00;;;;;18.59;54.25;101265.53;5058078;28;61117;-51
2022/06/26 07:12:16;;;;;;;;;0.33;0.33;;;;;18.76;53.78;101273.19;5068391;28;67586;-51
2022/06/26 07:14:41;;;;;;;;;4.00;1.33;;;;;18.96;53.13;101279.75;5058282;28;67415;-49
2022/06/26 07:17:08;;;;;;;;;2.00;1.33;;;;;19.17;53.12;101281.72;5058393;28;47618;-49
2022/06/26 07:19:34;;;;;;;;;2.00;2.00;;;;;19.42;50.34;101287.88;5058592;28;45446;-47
2022/06/26 07:21:59;;;;;;;;;3.00;0.67;;;;;19.59;51.58;101283.81;5060354;28;45390;-49
2022/06/26 07:24:24;;;;;;;;;3.50;1.00;;;;;19.73;51.17;101285.41;5060122;28;67981;-47
2022/06/26 07:26:50;;;;;;;;;1.25;0.25;;;;;19.80;50.25;101289.31;5057543;28;62000;-48
2022/06/26 07:29:15;;;;;;;;;3.00;1.00;;;;;19.86;49.76;101294.25;5054643;28;73163;-52
2022/06/26 07:31:40;;;;;;;;;2.25;0.50;;;;;19.93;50.60;101291.91;5057883;28;72801;-50
2022/06/26 07:34:18;;;;;;;;;1.67;1.00;;;;;19.94;49.01;101299.88;5052901;28;64220;-48
2022/06/26 07:36:46;;;;;;;;;2.00;1.00;;;;;19.99;49.51;101303.03;5054476;28;45888;-47
2022/06/26 07:39:13;;;;;;;;;1.33;0.33;;;;;20.14;49.54;101300.06;5057444;28;45495;-47
2022/06/26 07:41:39;;;;;;;;;1.33;1.33;;;;;20.31;49.42;101313.03;5057610;28;45526;-47
2022/06/26 07:44:06;;;;;;;;;1.00;1.00;;;;;20.45;49.11;101309.16;5054784;28;45414;-50
2022/06/26 07:46:31;;;;;;;;;1.33;1.33;;;;;20.57;48.15;101315.41;5057346;28;45457;-49
2022/06/26 07:48:56;;;;;;;;;4.00;3.00;;;;;20.65;47.98;101317.47;5055857;28;45573;-49
2022/06/26 07:51:22;;;;;;;;;2.33;2.00;;;;;20.78;48.42;101318.16;5053962;28;45602;-50
2022/06/26 07:53:47;;;;;;;;;1.67;1.67;;;;;20.85;46.28;101323.88;5056806;28;66125;-48
2022/06/26 07:56:13;;;;;;;;;1.33;0.33;;;;;20.88;46.53;101318.19;5056522;28;45608;-49
2022/06/26 07:58:38;;;;;;;;;1.00;1.00;;;;;20.92;42.95;101314.25;5055517;28;46204;-48
2022/06/26 08:01:04;;;;;;;;;0.33;0.33;;;;;20.85;44.58;101312.22;5055584;28;49769;-48
2022/06/26 08:03:30;;;;;;;;;0.67;0.33;;;;;20.76;45.76;101305.75;5061877;28;68021;-50
2022/06/26 08:05:55;;;;;;;;;2.00;1.33;;;;;20.73;43.11;101301.47;5055029;27;45700;-48
2022/06/26 08:08:21;;;;;;;;;2.33;1.00;;;;;20.73;45.45;101311.41;5056803;28;45483;-48
2022/06/26 08:10:46;;;;;;;;;1.25;0.75;;;;;20.71;45.69;101305.28;5065655;28;45530;-49
2022/06/26 08:13:11;;;;;;;;;1.00;1.00;;;;;20.76;46.02;101301.19;5057014;28;45865;-49
2022/06/26 08:15:37;;;;;;;;;3.00;1.00;;;;;20.87;45.68;101300.28;5055696;28;66701;-48
2022/06/26 08:18:03;;;;;;;;;1.25;1.25;;;;;21.00;45.00;101302.78;5057582;28;45439;-48
2022/06/26 08:20:28;;;;;;;;;3.00;2.33;;;;;21.12;45.93;101306.28;5056186;27;45391;-48
2022/06/26 08:22:54;;;;;;;;;0.75;0.75;;;;;21.19;45.55;101301.19;5060047;28;47410;-47
2022/06/26 08:25:19;;;;;;;;;1.00;1.00;;;;;21.25;44.54;101301.50;5055728;28;45434;-50
2022/06/26 08:27:45;;;;;;;;;2.25;0.75;;;;;21.27;43.96;101295.97;5057997;28;46200;-48
2022/06/26 08:30:10;;;;;;;;;0.25;0.25;;;;;21.28;43.27;101294.97;5044499;28;45602;-49
2022/06/26 08:32:37;;;;;;;;;2.75;1.00;;;;;21.31;43.34;101300.09;5055319;28;45553;-48
2022/06/26 08:35:04;;;;;;;;;2.00;1.50;;;;;21.31;42.82;101298.28;5044396;28;46803;-48
2022/06/26 08:37:29;;;;;;;;;1.75;1.00;;;;;21.34;43.09;101301.69;5056735;28;46227;-46
2022/06/26 08:39:55;;;;;;;;;1.00;1.00;;;;;21.45;42.88;101299.75;5056175;28;45497;-47
2022/06/26 08:42:21;;;;;;;;;1.00;1.00;;;;;21.56;43.16;101298.84;5056130;28;60645;-47
2022/06/26 08:44:47;;;;;;;;;1.00;1.00;;;;;21.64;43.27;101296.28;5072248;28;45417;-48
2022/06/26 08:47:13;;;;;;;;;1.00;1.00;;;;;21.73;42.48;101299.16;5048976;28;45981;-48
2022/06/26 08:49:40;;;;;;;;;2.00;0.75;;;;;21.85;42.45;101297.19;5048853;28;45468;-49
2022/06/26 08:52:06;;;;;;;;;0.25;0.25;;;;;22.02;42.62;101303.78;5049085;28;45386;-50
2022/06/26 08:54:32;;;;;;;;;0.00;0.00;;;;;22.17;41.50;101301.53;5056094;28;45769;-49
2022/06/26 08:56:58;;;;;;;;;0.00;0.00;;;;;22.45;41.85;101298.03;5057589;28;46209;-46
2022/06/26 08:59:23;;;;;;;;;2.00;2.00;;;;;22.95;40.76;101296.13;5061427;28;45565;-51
2022/06/26 09:01:49;;;;;;;;;2.75;1.00;;;;;23.43;40.30;101294.31;5056972;28;45745;-50
2022/06/26 09:04:15;;;;;;;;;0.00;0.00;;;;;23.85;39.67;101288.38;5058671;28;45538;-45
2022/06/26 09:06:42;;;;;;;;;0.00;0.00;;;;;24.26;39.12;101277.09;5055918;28;45393;-48
2022/06/26 09:09:19;;;;;;;;;0.00;0.00;;;;;24.63;39.01;101270.69;5072123;28;45916;-46
2022/06/26 09:11:46;;;;;;;;;2.00;1.00;;;;;24.89;37.82;101276.13;5053954;28;45562;-46
2022/06/26 09:14:12;;;;;;;;;0.00;0.00;;;;;24.90;37.54;101271.53;5055543;27;47032;-51
2022/06/26 09:16:41;;;;;;;;;2.00;1.00;;;;;24.85;37.37;101269.31;5047168;27;46231;-45
2022/06/26 09:19:13;;;;;;;;;1.00;0.00;;;;;24.77;36.11;101272.81;5049331;28;45477;-48
2022/06/26 09:21:39;;;;;;;;;0.00;0.00;;;;;24.37;33.26;101265.16;5057644;28;45364;-48
2022/06/26 09:24:09;;;;;;;;;0.00;0.00;;;;;24.00;35.63;101266.16;5062021;28;45390;-48
2022/06/26 09:26:35;;;;;;;;;0.75;0.50;;;;;23.89;34.29;101259.88;5057132;27;46811;-49
2022/06/26 09:29:20;;;;;;;;;0.00;0.00;;;;;24.13;36.52;101258.47;5055722;28;67798;-48
2022/06/26 09:31:46;;;;;;;;;0.00;0.00;;;;;24.34;34.24;101255.47;5064458;28;46764;-47
2022/06/26 09:34:24;;;;;;;;;0.75;0.75;;;;;24.54;34.80;101250.69;5036393;28;45641;-50
2022/06/26 09:37:01;;;;;;;;;0.00;0.00;;;;;25.04;34.31;101253.78;5054737;28;47163;-50
2022/06/26 09:39:27;;;;;;;;;0.00;0.00;;;;;25.42;33.77;101255.22;5058446;28;45381;-54
2022/06/26 09:41:52;;;;;;;;;0.00;0.00;;;;;25.67;34.47;101258.03;5055893;28;45409;-49
2022/06/26 09:44:18;;;;;;;;;0.00;0.00;;;;;25.79;33.10;101268.59;5056587;28;45518;-47
2022/06/26 09:46:44;;;;;;;;;0.00;0.00;;;;;25.87;33.42;101266.75;5054431;28;46097;-50
2022/06/26 09:49:10;;;;;;;;;0.00;0.00;;;;;25.99;33.14;101261.84;5068092;27;71963;-49
2022/06/26 09:51:36;;;;;;;;;1.25;1.00;;;;;26.17;32.62;101261.72;5055128;28;45317;-48
2022/06/26 09:54:04;;;;;;;;;0.00;0.00;;;;;26.23;31.44;101258.34;5048280;28;45308;-51
2022/06/26 09:56:30;;;;;;;;;0.00;0.00;;;;;26.26;32.45;101248.97;5058732;28;46268;-52
2022/06/26 09:58:58;;;;;;;;;0.75;0.00;;;;;26.22;31.73;101250.34;5063887;28;45477;-49
2022/06/26 10:06:54;;;;;;;;;0.00;0.00;;;;;26.93;30.64;101263.47;5055396;28;45476;-52
2022/06/26 10:09:20;;;;;;;;;0.00;0.00;;;;;27.43;30.57;101256.88;5082164;27;71295;-46
2022/06/26 10:11:45;;;;;;;;;0.00;0.00;;;;;27.93;29.64;101257.44;5060116;28;57437;-47
2022/06/26 10:14:18;;;;;;;;;0.00;0.00;;;;;28.45;29.82;101258.63;5060310;28;45466;-49
2022/06/26 10:17:00;;;;;;;;;0.75;0.00;;;;;28.83;28.40;101250.44;5060403;28;46137;-45
2022/06/26 10:19:34;;;;;;;;;0.00;0.00;;;;;29.23;27.03;101252.06;5059335;28;45384;-53
2022/06/26 10:22:00;;;;;;;;;0.75;0.00;;;;;29.12;27.72;101240.53;5057958;28;45441;-46
2022/06/26 10:24:26;;;;;;;;;0.75;0.25;;;;;29.35;27.57;101245.13;5044683;28;69469;-57
2022/06/26 10:26:57;;;;;;;;;1.00;1.00;;;;;29.54;25.23;101238.19;5057774;28;45522;-56
2022/06/26 10:30:02;;;;;;;;;0.75;0.75;;;;;29.30;25.65;101239.34;5049180;28;45373;-56
2022/06/26 10:32:28;;;;;;;;;0.00;0.00;;;;;28.83;25.20;101247.72;5054030;28;45861;-57
2022/06/26 10:34:57;;;;;;;;;0.00;0.00;;;;;28.72;26.61;101256.38;5054015;28;63859;-57
2022/06/26 10:37:23;;;;;;;;;1.00;0.00;;;;;28.43;23.97;101249.75;5058513;28;47166;-56
2022/06/26 10:39:51;;;;;;;;;1.75;1.75;;;;;27.93;25.95;101253.88;5049286;28;56938;-57
2022/06/26 10:45:17;;;;;;;;;0.25;0.25;;;;;27.65;26.88;101260.69;5052887;28;45579;-57
2022/06/26 10:47:49;;;;;;;;;0.50;0.00;;;;;27.55;26.22;101257.31;5081200;27;45413;-57
2022/06/26 10:50:25;;;;;;;;;3.75;0.50;;;;;27.51;27.01;101265.00;5057458;28;46053;-57
2022/06/26 10:52:51;;;;;;;;;1.00;0.00;;;;;27.51;26.71;101264.19;5051412;28;45650;-57
2022/06/26 10:55:17;;;;;;;;;0.50;0.50;;;;;27.47;27.68;101255.47;5059759;28;45383;-57
2022/06/26 10:57:42;;;;;;;;;0.50;0.00;;;;;27.53;26.79;101260.25;5058542;28;46465;-55
2022/06/26 11:00:16;;;;;;;;;1.75;1.75;;;;;27.48;27.03;101259.03;5060624;28;45565;-56
2022/06/26 11:02:46;;;;;;;;;0.75;0.50;;;;;27.26;26.44;101256.03;5059096;28;45524;-56
2022/06/26 11:05:13;;;;;;;;;1.25;0.75;;;;;27.12;25.94;101260.34;5057760;28;45314;-55
2022/06/26 11:07:45;;;;;;;;;1.50;0.25;;;;;26.79;26.18;101252.22;5055859;28;47195;-54
2022/06/26 11:10:22;;;;;;;;;0.50;0.50;;;;;26.35;26.44;101242.50;5052919;28;45423;-55
2022/06/26 11:12:50;;;;;;;;;3.00;0.75;;;;;26.10;27.10;101241.66;5058868;28;45391;-56
2022/06/26 11:15:32;;;;;;;;;1.00;0.00;;;;;25.88;28.02;101245.84;5061082;28;45790;-55
2022/06/26 11:18:05;;;;;;;;;1.25;0.00;;;;;25.68;27.90;101237.94;5057150;28;46472;-56
2022/06/26 11:20:47;;;;;;;;;0.00;0.00;;;;;25.55;28.78;101243.84;5059657;27;45464;-55
2022/06/26 11:23:14;;;;;;;;;69.50;50.50;;;;;25.38;28.04;101247.50;5054070;28;45335;-55
2022/06/26 11:25:41;;;;;;;;;6.67;5.33;;;;;25.32;28.42;101234.53;5058045;28;45461;-56
2022/06/26 11:28:08;;;;;;;;;6.00;5.67;;;;;25.35;29.24;101231.53;5061324;28;45552;-56
2022/06/26 11:30:36;;;;;;;;;6.67;6.67;;;;;25.51;29.34;101228.00;5050254;28;45616;-57
2022/06/26 11:33:01;;;;;;;;;1.67;1.67;;;;;25.68;28.10;101223.47;5056947;28;46812;-57
2022/06/26 11:35:27;;;;;;;;;1.50;0.75;;;;;25.76;28.29;101235.25;5054841;28;60839;-55